createdAt,value
2023-11-28T00:01:17.142Z,1.40
2023-11-28T00:03:44.324Z,1.83
2023-11-28T00:06:20.056Z,1.40
2023-11-28T00:08:47.104Z,1.27
2023-11-28T00:11:20.623Z,1.40
2023-11-28T00:13:47.618Z,1.38
2023-11-28T00:16:14.017Z,1.58
2023-11-28T00:18:40.489Z,1.80
2023-11-28T00:21:07.325Z,1.25
2023-11-28T00:23:33.703Z,1.52
2023-11-28T00:26:00.587Z,1.50
2023-11-28T00:28:27.238Z,1.30
2023-11-28T00:30:54.273Z,2.00
2023-11-28T00:33:20.788Z,1.23
2023-11-28T00:35:47.339Z,1.10
2023-11-28T00:38:14.199Z,1.02
2023-11-28T00:40:41.186Z,1.10
2023-11-28T00:43:08.450Z,2.05
2023-11-28T00:45:35.017Z,1.40
2023-11-28T00:48:01.913Z,1.67
2023-11-28T00:50:28.370Z,1.42
2023-11-28T00:52:54.997Z,1.33
2023-11-28T00:55:21.354Z,1.27
2023-11-28T00:57:47.696Z,1.30
2023-11-28T01:00:14.455Z,0.98
2023-11-28T01:02:42.296Z,1.00
2023-11-28T01:05:12.757Z,0.75
2023-11-28T01:07:39.257Z,1.80
2023-11-28T01:10:06.176Z,1.60
2023-11-28T01:12:32.583Z,2.20
2023-11-28T01:14:59.046Z,1.48
2023-11-28T01:17:25.588Z,2.38
2023-11-28T01:19:52.226Z,1.13
2023-11-28T01:22:18.740Z,1.45
2023-11-28T01:24:45.250Z,1.42
2023-11-28T01:27:11.651Z,1.60
2023-11-28T01:29:38.412Z,1.75
2023-11-28T01:32:05.354Z,1.60
2023-11-28T01:34:31.926Z,1.88
2023-11-28T01:36:58.397Z,1.10
2023-11-28T01:39:24.748Z,1.50
2023-11-28T01:41:51.128Z,1.50
2023-11-28T01:44:17.641Z,1.50
2023-11-28T01:46:44.740Z,1.50
2023-11-28T01:49:11.443Z,1.20
2023-11-28T01:51:38.133Z,1.27
2023-11-28T01:54:05.994Z,1.58
2023-11-28T01:56:33.265Z,1.10
2023-11-28T01:59:00.524Z,1.35
2023-11-28T02:01:29.549Z,1.35
2023-11-28T02:03:56.242Z,1.10
2023-11-28T02:06:22.643Z,1.20
2023-11-28T02:08:48.992Z,1.35
2023-11-28T02:11:15.530Z,1.30
2023-11-28T02:13:41.983Z,0.93
2023-11-28T02:16:11.348Z,1.15
2023-11-28T02:18:37.909Z,1.40
2023-11-28T02:21:04.492Z,1.65
2023-11-28T02:23:31.638Z,1.08
2023-11-28T02:26:01.851Z,1.70
2023-11-28T02:28:28.328Z,1.60
2023-11-28T02:30:57.469Z,1.45
2023-11-28T02:33:23.997Z,1.30
2023-11-28T02:35:50.593Z,1.58
2023-11-28T02:38:16.965Z,1.13
2023-11-28T02:40:43.464Z,1.30
2023-11-28T02:43:10.195Z,1.15
2023-11-28T02:45:36.942Z,1.00
2023-11-28T02:48:03.511Z,0.60
2023-11-28T02:50:30.013Z,1.40
2023-11-28T02:52:56.518Z,1.33
2023-11-28T02:55:22.985Z,0.90
2023-11-28T02:57:49.847Z,1.20
2023-11-28T03:00:16.445Z,0.80
2023-11-28T03:02:42.949Z,0.80
2023-11-28T03:05:09.523Z,0.75
2023-11-28T03:07:36.001Z,0.70
2023-11-28T03:10:02.676Z,0.93
2023-11-28T03:12:29.060Z,0.80
2023-11-28T03:14:55.412Z,0.63
2023-11-28T03:17:21.830Z,0.50
2023-11-28T03:19:48.249Z,0.70
2023-11-28T03:22:14.645Z,0.60
2023-11-28T03:24:41.951Z,0.60
2023-11-28T03:27:08.491Z,0.70
2023-11-28T03:29:35.040Z,0.40
2023-11-28T03:32:01.481Z,0.60
2023-11-28T03:34:28.039Z,0.40
2023-11-28T03:36:54.538Z,0.65
2023-11-28T03:39:20.932Z,0.50
2023-11-28T03:41:50.157Z,0.40
2023-11-28T03:44:16.584Z,0.30
2023-11-28T03:46:43.451Z,0.30
2023-11-28T03:49:10.217Z,0.40
2023-11-28T03:51:40.036Z,0.55
2023-11-28T03:54:06.901Z,0.38
2023-11-28T03:56:33.299Z,0.32
2023-11-28T03:58:59.868Z,0.25
2023-11-28T04:01:26.338Z,0.38
2023-11-28T04:03:52.782Z,0.80
2023-11-28T04:06:19.211Z,1.05
2023-11-28T04:08:45.665Z,0.20
2023-11-28T04:11:12.216Z,0.30
2023-11-28T04:13:38.627Z,0.40
2023-11-28T04:16:05.193Z,0.40
2023-11-28T04:18:32.865Z,0.30
2023-11-28T04:20:59.535Z,0.40
2023-11-28T04:23:25.891Z,0.30
2023-11-28T04:25:52.269Z,0.43
2023-11-28T04:28:18.638Z,0.40
2023-11-28T04:30:45.069Z,0.40
2023-11-28T04:33:11.702Z,0.50
2023-11-28T04:35:38.103Z,0.52
2023-11-28T04:38:04.580Z,0.40
2023-11-28T04:40:31.063Z,0.50
2023-11-28T04:42:57.462Z,0.35
2023-11-28T04:45:23.820Z,0.38
2023-11-28T04:47:50.341Z,0.40
2023-11-28T04:50:16.811Z,0.32
2023-11-28T04:52:43.292Z,0.45
2023-11-28T04:55:09.801Z,0.40
2023-11-28T04:57:36.370Z,0.38
2023-11-28T05:00:04.226Z,0.50
2023-11-28T05:02:30.706Z,0.20
2023-11-28T05:04:57.200Z,0.30
2023-11-28T05:07:23.577Z,0.30
2023-11-28T05:09:50.056Z,0.28
2023-11-28T05:12:16.458Z,0.22
2023-11-28T05:14:42.792Z,0.30
2023-11-28T05:17:09.753Z,0.40
2023-11-28T05:19:36.215Z,0.40
2023-11-28T05:22:02.846Z,0.50
2023-11-28T05:24:29.280Z,0.40
2023-11-28T05:27:00.279Z,0.30
2023-11-28T05:29:28.128Z,0.30
2023-11-28T05:31:54.580Z,0.75
2023-11-28T05:34:21.878Z,0.50
2023-11-28T05:36:49.040Z,0.30
2023-11-28T05:39:15.432Z,0.50
2023-11-28T05:41:41.814Z,0.35
2023-11-28T05:44:08.538Z,0.30
2023-11-28T05:46:35.172Z,0.32
2023-11-28T05:49:01.590Z,0.40
2023-11-28T05:51:28.022Z,0.50
2023-11-28T05:53:54.403Z,0.30
2023-11-28T05:56:20.837Z,0.32
2023-11-28T05:58:47.314Z,0.30
2023-11-28T06:01:14.332Z,0.40
2023-11-28T06:03:40.849Z,0.40
2023-11-28T06:06:07.497Z,0.20
2023-11-28T06:08:33.908Z,0.32
2023-11-28T06:11:01.421Z,0.50
2023-11-28T06:13:28.413Z,0.40
2023-11-28T06:15:54.831Z,0.40
2023-11-28T06:18:21.483Z,0.30
2023-11-28T06:20:48.079Z,0.85
2023-11-28T06:23:18.648Z,0.32
2023-11-28T06:25:46.317Z,0.50
2023-11-28T06:28:12.727Z,0.57
2023-11-28T06:30:39.081Z,0.30
2023-11-28T06:33:05.446Z,0.55
2023-11-28T06:35:35.662Z,0.55
2023-11-28T06:38:02.799Z,0.30
2023-11-28T06:40:29.250Z,0.50
2023-11-28T06:42:58.662Z,0.50
2023-11-28T06:45:25.135Z,1.27
2023-11-28T06:47:51.645Z,0.40
2023-11-28T06:50:18.642Z,0.63
2023-11-28T06:52:47.189Z,0.60
2023-11-28T06:55:13.552Z,0.60
2023-11-28T06:57:39.975Z,0.30
2023-11-28T07:00:06.715Z,0.47
2023-11-28T07:02:33.258Z,1.25
2023-11-28T07:04:59.836Z,0.70
2023-11-28T07:07:26.226Z,0.52
2023-11-28T07:09:52.583Z,0.47
2023-11-28T07:12:18.972Z,0.35
2023-11-28T07:14:45.715Z,0.90
2023-11-28T07:17:12.551Z,1.05
2023-11-28T07:19:38.995Z,0.50
2023-11-28T07:22:05.355Z,0.38
2023-11-28T07:24:31.719Z,0.47
2023-11-28T07:26:58.159Z,0.60
2023-11-28T07:29:24.485Z,0.60
2023-11-28T07:31:50.920Z,0.45
2023-11-28T07:34:17.346Z,0.30
2023-11-28T07:36:46.147Z,0.55
2023-11-28T07:39:13.940Z,0.52
2023-11-28T07:41:40.420Z,0.32
2023-11-28T07:44:06.937Z,0.73
2023-11-28T07:46:33.455Z,0.98
2023-11-28T07:48:59.872Z,0.60
2023-11-28T07:51:26.303Z,0.35
2023-11-28T07:53:52.856Z,0.30
2023-11-28T07:56:19.448Z,0.55
2023-11-28T07:58:46.250Z,0.50
2023-11-28T08:01:12.666Z,0.32
2023-11-28T08:03:39.241Z,0.57
2023-11-28T08:06:06.271Z,0.40
2023-11-28T08:08:32.735Z,0.40
2023-11-28T08:11:00.430Z,0.20
2023-11-28T08:13:26.958Z,0.60
2023-11-28T08:15:59.204Z,0.60
2023-11-28T08:18:26.681Z,0.40
2023-11-28T08:20:53.114Z,0.65
2023-11-28T08:23:19.534Z,0.70
2023-11-28T08:25:45.956Z,0.70
2023-11-28T08:28:12.524Z,0.45
2023-11-28T08:30:38.894Z,0.77
2023-11-28T08:33:05.397Z,0.35
2023-11-28T08:35:31.821Z,0.68
2023-11-28T08:37:58.300Z,0.40
2023-11-28T08:40:24.688Z,0.52
2023-11-28T08:42:51.102Z,0.85
2023-11-28T08:45:17.497Z,0.47
2023-11-28T08:47:44.765Z,0.80
2023-11-28T08:50:13.269Z,0.70
2023-11-28T08:52:40.169Z,0.35
2023-11-28T08:55:07.047Z,0.90
2023-11-28T08:57:36.223Z,0.80
2023-11-28T09:00:03.290Z,0.95
2023-11-28T09:02:29.935Z,1.10
2023-11-28T09:04:56.570Z,1.15
2023-11-28T09:07:23.105Z,0.95
2023-11-28T09:09:49.525Z,0.82
2023-11-28T09:12:17.126Z,1.10
2023-11-28T09:14:50.778Z,1.23
2023-11-28T09:17:22.789Z,1.00
2023-11-28T09:19:49.309Z,0.90
2023-11-28T09:22:15.664Z,1.58
2023-11-28T09:24:43.697Z,0.90
2023-11-28T09:27:11.629Z,0.93
2023-11-28T09:29:38.171Z,1.17
2023-11-28T09:32:04.932Z,1.00
2023-11-28T09:34:32.698Z,1.25
2023-11-28T09:36:59.113Z,1.40
2023-11-28T09:39:27.579Z,1.17
2023-11-28T09:41:53.985Z,1.00
2023-11-28T09:44:26.559Z,0.80
2023-11-28T09:46:55.719Z,1.10
2023-11-28T09:49:22.213Z,1.10
2023-11-28T09:51:49.893Z,0.70
2023-11-28T09:54:16.596Z,1.25
2023-11-28T09:56:45.032Z,1.02
2023-11-28T09:59:14.695Z,1.27
2023-11-28T10:01:43.609Z,0.98
2023-11-28T10:04:10.117Z,0.95
2023-11-28T10:06:38.612Z,1.08
2023-11-28T10:09:07.172Z,1.00
2023-11-28T10:11:36.160Z,0.95
2023-11-28T10:14:02.566Z,0.90
2023-11-28T10:16:44.841Z,0.60
2023-11-28T10:19:11.498Z,0.52
2023-11-28T10:21:39.461Z,0.70
2023-11-28T10:24:07.248Z,0.43
2023-11-28T10:26:33.716Z,1.02
2023-11-28T10:29:01.727Z,0.70
2023-11-28T10:31:28.187Z,1.30
2023-11-28T10:33:57.798Z,1.00
2023-11-28T10:36:26.810Z,1.05
2023-11-28T10:38:53.448Z,0.90
2023-11-28T10:41:19.967Z,0.60
2023-11-28T10:43:47.092Z,0.73
2023-11-28T10:46:16.125Z,0.80
2023-11-28T10:48:42.600Z,1.10
2023-11-28T10:51:10.572Z,0.90
2023-11-28T10:53:37.122Z,0.77
2023-11-28T10:56:04.271Z,1.27
2023-11-28T10:58:31.155Z,0.95
2023-11-28T11:01:03.757Z,0.73
2023-11-28T11:03:32.534Z,0.77
2023-11-28T11:05:59.010Z,1.00
2023-11-28T11:08:25.763Z,0.88
2023-11-28T11:10:52.660Z,0.93
2023-11-28T11:13:25.402Z,1.08
2023-11-28T11:16:06.532Z,1.00
2023-11-28T11:18:37.734Z,1.00
2023-11-28T11:21:24.705Z,0.73
2023-11-28T11:23:54.096Z,0.90
2023-11-28T11:26:37.699Z,0.85
2023-11-28T11:29:05.060Z,1.00
2023-11-28T11:31:31.538Z,1.10
2023-11-28T11:33:57.982Z,1.10
2023-11-28T11:36:25.834Z,1.10
2023-11-28T11:38:53.330Z,1.00
2023-11-28T11:41:19.993Z,0.60
2023-11-28T11:43:46.545Z,0.88
2023-11-28T11:46:15.223Z,0.98
2023-11-28T11:48:43.143Z,0.77
2023-11-28T11:51:10.603Z,0.90
2023-11-28T11:53:40.890Z,1.20
2023-11-28T11:56:07.774Z,0.98
2023-11-28T11:58:34.403Z,0.90
2023-11-28T12:01:02.166Z,0.90
2023-11-28T12:03:29.055Z,0.90
2023-11-28T12:05:58.501Z,0.80
2023-11-28T12:08:25.098Z,0.70
2023-11-28T12:10:54.234Z,0.40
2023-11-28T12:13:21.068Z,0.73
2023-11-28T12:15:47.633Z,0.65
2023-11-28T12:18:14.360Z,1.10
2023-11-28T12:20:42.240Z,1.27
2023-11-28T12:23:09.475Z,1.33
2023-11-28T12:25:39.346Z,1.02
2023-11-28T12:28:06.199Z,1.20
2023-11-28T12:30:33.073Z,1.20
2023-11-28T12:33:01.716Z,0.90
2023-11-28T12:35:29.499Z,1.52
2023-11-28T12:37:56.865Z,1.10
2023-11-28T12:40:23.527Z,1.23
2023-11-28T12:42:49.970Z,1.00
2023-11-28T12:45:19.317Z,0.95
2023-11-28T12:47:45.719Z,1.45
2023-11-28T12:50:13.327Z,1.55
2023-11-28T12:52:43.005Z,1.25
2023-11-28T12:55:10.288Z,1.60
2023-11-28T12:57:36.993Z,1.13
2023-11-28T13:00:03.914Z,1.38
2023-11-28T13:02:30.483Z,1.10
2023-11-28T13:04:57.311Z,1.30
2023-11-28T13:07:33.066Z,1.10
2023-11-28T13:10:05.022Z,1.20
2023-11-28T13:12:31.553Z,1.33
2023-11-28T13:14:58.048Z,0.90
2023-11-28T13:17:24.683Z,1.17
2023-11-28T13:19:51.303Z,1.38
2023-11-28T13:22:19.625Z,1.08
2023-11-28T13:24:47.206Z,1.17
2023-11-28T13:27:13.703Z,1.02
2023-11-28T13:29:40.586Z,1.23
2023-11-28T13:32:07.123Z,1.10
2023-11-28T13:34:33.654Z,0.75
2023-11-28T13:37:00.056Z,0.60
2023-11-28T13:39:27.756Z,0.60
2023-11-28T13:41:54.228Z,0.60
2023-11-28T13:44:20.746Z,0.88
2023-11-28T13:46:47.316Z,0.77
2023-11-28T13:49:13.742Z,0.73
2023-11-28T13:51:40.124Z,0.52
2023-11-28T13:54:06.631Z,0.73
2023-11-28T13:56:34.709Z,0.70
2023-11-28T13:59:01.124Z,0.57
2023-11-28T14:01:27.635Z,0.55
2023-11-28T14:03:56.527Z,0.60
2023-11-28T14:06:22.955Z,0.77
2023-11-28T14:08:49.351Z,0.57
2023-11-28T14:11:15.880Z,1.23
2023-11-28T14:13:42.279Z,0.50
2023-11-28T14:16:09.048Z,0.50
2023-11-28T14:18:35.979Z,0.50
2023-11-28T14:21:05.271Z,0.52
2023-11-28T14:23:33.219Z,0.85
2023-11-28T14:25:59.672Z,0.80
2023-11-28T14:28:26.056Z,0.88
2023-11-28T14:30:52.556Z,0.60
2023-11-28T14:33:19.325Z,1.00
2023-11-28T14:35:45.891Z,1.42
2023-11-28T14:38:12.407Z,0.70
2023-11-28T14:40:38.906Z,0.80
2023-11-28T14:43:06.632Z,0.60
2023-11-28T14:45:33.327Z,0.80
2023-11-28T14:47:59.748Z,1.25
2023-11-28T14:50:27.103Z,1.30
2023-11-28T14:52:53.614Z,0.93
2023-11-28T14:55:20.743Z,0.98
2023-11-28T14:57:47.124Z,1.20
2023-11-28T15:00:17.744Z,1.00
2023-11-28T15:02:44.887Z,1.17
2023-11-28T15:05:14.568Z,1.25
2023-11-28T15:07:42.973Z,1.17
2023-11-28T15:10:09.669Z,0.77
2023-11-28T15:12:36.905Z,0.82
2023-11-28T15:15:03.370Z,0.68
2023-11-28T15:17:29.886Z,1.10
2023-11-28T15:19:57.021Z,1.13
2023-11-28T15:22:25.720Z,0.88
2023-11-28T15:24:53.315Z,0.88
2023-11-28T15:27:21.414Z,0.93
2023-11-28T15:29:48.348Z,1.00
2023-11-28T15:32:14.795Z,0.80
2023-11-28T15:34:42.916Z,1.17
2023-11-28T15:37:11.100Z,0.80
2023-11-28T15:39:37.587Z,1.10
2023-11-28T15:42:04.146Z,1.20
2023-11-28T15:44:30.581Z,0.85
2023-11-28T15:46:58.206Z,1.25
2023-11-28T15:49:36.526Z,1.20
2023-11-28T15:52:06.853Z,0.90
2023-11-28T15:54:33.296Z,0.73
2023-11-28T15:56:59.693Z,0.80
2023-11-28T15:59:26.148Z,0.88
2023-11-28T16:01:52.878Z,0.82
2023-11-28T16:04:19.416Z,0.93
2023-11-28T16:06:45.816Z,0.90
2023-11-28T16:09:12.671Z,0.88
2023-11-28T16:11:40.377Z,2.83
2023-11-28T16:14:07.151Z,1.08
2023-11-28T16:16:34.533Z,0.75
2023-11-28T16:19:01.375Z,1.00
2023-11-28T16:21:30.696Z,0.60
2023-11-28T16:23:57.905Z,0.93
2023-11-28T16:26:24.390Z,1.35
2023-11-28T16:28:50.959Z,1.27
2023-11-28T16:31:18.538Z,1.10
2023-11-28T16:33:44.982Z,1.15
2023-11-28T16:36:12.451Z,0.73
2023-11-28T16:38:39.239Z,0.80
2023-11-28T16:41:08.023Z,1.00
2023-11-28T16:43:38.290Z,0.90
2023-11-28T16:46:07.680Z,0.80
2023-11-28T16:48:34.103Z,1.02
2023-11-28T16:51:00.464Z,0.75
2023-11-28T16:53:26.919Z,0.60
2023-11-28T16:55:53.386Z,0.50
2023-11-28T16:58:19.900Z,0.68
2023-11-28T17:00:49.872Z,0.90
2023-11-28T17:03:16.607Z,0.50
2023-11-28T17:05:43.057Z,0.60
2023-11-28T17:08:09.675Z,1.10
2023-11-28T17:10:36.286Z,0.77
2023-11-28T17:13:04.218Z,0.45
2023-11-28T17:15:30.712Z,0.50
2023-11-28T17:17:57.248Z,0.55
2023-11-28T17:20:23.775Z,0.30
2023-11-28T17:22:50.244Z,0.82
2023-11-28T17:25:16.677Z,0.70
2023-11-28T17:27:43.040Z,0.60
2023-11-28T17:30:10.852Z,1.05
2023-11-28T17:32:37.934Z,0.47
2023-11-28T17:35:06.354Z,0.68
2023-11-28T17:37:33.953Z,0.80
2023-11-28T17:40:00.403Z,0.38
2023-11-28T17:42:26.877Z,0.63
2023-11-28T17:44:55.498Z,0.50
2023-11-28T17:47:26.689Z,0.30
2023-11-28T17:49:53.193Z,0.30
2023-11-28T17:52:19.567Z,0.30
2023-11-28T17:54:45.909Z,0.22
2023-11-28T17:57:12.415Z,0.35
2023-11-28T17:59:38.948Z,0.30
2023-11-28T18:02:05.423Z,0.30
2023-11-28T18:04:32.645Z,0.20
2023-11-28T18:06:59.767Z,0.30
2023-11-28T18:09:26.253Z,0.40
2023-11-28T18:11:52.654Z,0.50
2023-11-28T18:14:19.108Z,0.57
2023-11-28T18:16:45.530Z,0.50
2023-11-28T18:19:12.044Z,0.47
2023-11-28T18:21:38.567Z,0.57
2023-11-28T18:24:05.158Z,0.52
2023-11-28T18:26:31.570Z,0.70
2023-11-28T18:28:58.372Z,0.50
2023-11-28T18:31:25.167Z,0.80
2023-11-28T18:33:53.470Z,1.00
2023-11-28T18:36:20.898Z,0.90
2023-11-28T18:38:51.293Z,0.98
2023-11-28T18:41:24.196Z,0.90
2023-11-28T18:43:50.780Z,0.90
2023-11-28T18:46:17.480Z,0.77
2023-11-28T18:48:43.966Z,1.25
2023-11-28T18:51:19.538Z,0.63
2023-11-28T18:53:46.590Z,0.65
2023-11-28T18:56:16.914Z,0.75
2023-11-28T18:58:43.376Z,0.88
2023-11-28T19:01:14.778Z,0.68
2023-11-28T19:03:41.809Z,0.85
2023-11-28T19:06:08.461Z,0.70
2023-11-28T19:08:34.853Z,0.80
2023-11-28T19:11:01.264Z,0.50
2023-11-28T19:13:27.668Z,0.47
2023-11-28T19:15:54.034Z,0.50
2023-11-28T19:18:20.497Z,0.60
2023-11-28T19:20:47.406Z,0.55
2023-11-28T19:23:13.836Z,0.57
2023-11-28T19:25:42.633Z,0.60
2023-11-28T19:28:09.915Z,0.73
2023-11-28T19:30:36.419Z,0.47
2023-11-28T19:33:02.979Z,0.60
2023-11-28T19:35:29.493Z,0.22
2023-11-28T19:37:55.910Z,0.50
2023-11-28T19:40:22.291Z,0.40
2023-11-28T19:42:49.788Z,0.30
2023-11-28T19:45:16.939Z,0.40
2023-11-28T19:47:44.499Z,0.50
2023-11-28T19:50:11.952Z,0.68
2023-11-28T19:52:38.377Z,0.60
2023-11-28T19:55:05.081Z,0.90
2023-11-28T19:57:31.495Z,0.80
2023-11-28T19:59:59.605Z,0.85
2023-11-28T20:02:26.262Z,0.82
2023-11-28T20:04:54.664Z,1.00
2023-11-28T20:07:23.039Z,1.20
2023-11-28T20:09:49.499Z,0.98
2023-11-28T20:12:16.071Z,1.00
2023-11-28T20:14:43.920Z,1.10
2023-11-28T20:17:14.552Z,1.33
2023-11-28T20:19:41.260Z,1.27
2023-11-28T20:22:07.684Z,1.00
2023-11-28T20:24:34.098Z,1.48
2023-11-28T20:27:00.634Z,0.90
2023-11-28T20:29:27.087Z,1.48
2023-11-28T20:31:53.512Z,1.10
2023-11-28T20:34:20.185Z,1.50
2023-11-28T20:36:46.628Z,1.38
2023-11-28T20:39:13.118Z,1.40
2023-11-28T20:41:39.788Z,1.48
2023-11-28T20:44:08.049Z,1.27
2023-11-28T20:46:34.889Z,1.30
2023-11-28T20:49:01.293Z,1.50
2023-11-28T20:51:28.003Z,1.48
2023-11-28T20:53:54.423Z,1.30
2023-11-28T20:56:22.200Z,1.40
2023-11-28T20:58:49.767Z,0.90
2023-11-28T21:01:18.922Z,0.88
2023-11-28T21:03:45.446Z,0.43
2023-11-28T21:06:12.821Z,0.88
2023-11-28T21:08:39.940Z,0.43
2023-11-28T21:11:06.528Z,1.00
2023-11-28T21:13:32.941Z,0.88
2023-11-28T21:15:59.558Z,0.80
2023-11-28T21:18:26.261Z,0.95
2023-11-28T21:20:52.890Z,0.60
2023-11-28T21:23:19.315Z,1.20
2023-11-28T21:25:45.803Z,1.10
2023-11-28T21:28:12.460Z,0.73
2023-11-28T21:30:38.994Z,0.60
2023-11-28T21:33:05.420Z,0.70
2023-11-28T21:35:33.088Z,0.60
2023-11-28T21:37:59.775Z,0.85
2023-11-28T21:40:26.421Z,0.70
2023-11-28T21:42:53.101Z,0.70
2023-11-28T21:45:19.559Z,0.70
2023-11-28T21:47:46.309Z,0.40
2023-11-28T21:50:16.550Z,1.23
2023-11-28T21:52:43.067Z,0.60
2023-11-28T21:55:09.601Z,0.50
2023-11-28T21:57:36.034Z,0.30
2023-11-28T22:00:02.461Z,0.40
2023-11-28T22:02:29.019Z,0.47
2023-11-28T22:04:55.463Z,0.40
2023-11-28T22:07:21.998Z,0.47
2023-11-28T22:09:48.376Z,0.40
2023-11-28T22:12:14.710Z,0.40
2023-11-28T22:14:41.204Z,0.63
2023-11-28T22:17:10.591Z,0.85
2023-11-28T22:19:37.047Z,0.75
2023-11-28T22:22:03.505Z,0.60
2023-11-28T22:24:30.329Z,0.47
2023-11-28T22:26:56.727Z,0.50
2023-11-28T22:29:23.730Z,0.60
2023-11-28T22:31:50.824Z,0.40
2023-11-28T22:34:17.313Z,0.57
2023-11-28T22:36:43.695Z,0.82
2023-11-28T22:39:11.175Z,0.55
2023-11-28T22:41:37.627Z,0.30
2023-11-28T22:44:04.166Z,0.57
2023-11-28T22:46:30.755Z,0.55
2023-11-28T22:48:57.291Z,0.70
2023-11-28T22:51:23.803Z,0.90
2023-11-28T22:53:51.122Z,0.50
2023-11-28T22:56:17.518Z,0.30
2023-11-28T22:58:43.905Z,0.20
2023-11-28T23:01:10.421Z,0.45
2023-11-28T23:03:38.614Z,0.60
2023-11-28T23:06:05.190Z,0.40
2023-11-28T23:08:35.158Z,0.52
2023-11-28T23:11:01.686Z,0.30
2023-11-28T23:13:28.226Z,0.77
2023-11-28T23:15:54.639Z,0.95
2023-11-28T23:18:21.871Z,1.02
2023-11-28T23:20:49.472Z,0.70
2023-11-28T23:23:15.899Z,0.60
2023-11-28T23:25:42.338Z,1.40
2023-11-28T23:28:08.713Z,0.60
2023-11-28T23:30:35.111Z,0.63
2023-11-28T23:33:01.582Z,0.60
2023-11-28T23:35:28.582Z,0.68
2023-11-28T23:37:56.091Z,0.50
2023-11-28T23:40:22.795Z,0.57
2023-11-28T23:42:52.671Z,0.80
2023-11-28T23:45:19.684Z,0.52
2023-11-28T23:47:49.344Z,0.73
2023-11-28T23:50:16.031Z,0.70
2023-11-28T23:52:42.921Z,0.75
2023-11-28T23:55:10.394Z,0.55
2023-11-28T23:57:36.798Z,0.73
